sensor_id;sensor_type;location;lat;lon;timestamp;temperature;humidity
17170;DHT22;8700;48.222;16.342;2022-11-14T00:01:16;8.40;99.90
17170;DHT22;8700;48.222;16.342;2022-11-14T00:04:37;8.50;99.90
17170;DHT22;8700;48.222;16.342;2022-11-14T00:07:59;8.30;99.90
17170;DHT22;8700;48.222;16.342;2022-11-14T00:11:21;8.30;99.90
17170;DHT22;8700;48.222;16.342;2022-11-14T00:14:43;8.30;99.90
17170;DHT22;8700;48.222;16.342;2022-11-14T00:18:04;8.30;99.90
17170;DHT22;8700;48.222;16.342;2022-11-14T00:21:26;8.30;99.90
17170;DHT22;8700;48.222;16.342;2022-11-14T00:24:47;8.30;99.90
17170;DHT22;8700;48.222;16.342;2022-11-14T00:28:11;8.30;99.90
17170;DHT22;8700;48.222;16.342;2022-11-14T00:31:32;8.30;99.90
17170;DHT22;8700;48.222;16.342;2022-11-14T00:34:54;8.20;99.90
17170;DHT22;8700;48.222;16.342;2022-11-14T00:38:15;8.20;99.90
17170;DHT22;8700;48.222;16.342;2022-11-14T00:41:37;8.30;99.90
17170;DHT22;8700;48.222;16.342;2022-11-14T00:44:59;8.30;99.90
17170;DHT22;8700;48.222;16.342;2022-11-14T00:48:22;8.40;99.90
17170;DHT22;8700;48.222;16.342;2022-11-14T00:51:43;8.40;99.90
17170;DHT22;8700;48.222;16.342;2022-11-14T00:55:06;8.30;99.90
17170;DHT22;8700;48.222;16.342;2022-11-14T00:58:28;8.30;99.90
17170;DHT22;8700;48.222;16.342;2022-11-14T01:01:51;8.20;99.90
17170;DHT22;8700;48.222;16.342;2022-11-14T01:05:12;8.30;99.90
17170;DHT22;8700;48.222;16.342;2022-11-14T01:08:35;8.40;99.90
17170;DHT22;8700;48.222;16.342;2022-11-14T01:11:56;8.30;99.90
17170;DHT22;8700;48.222;16.342;2022-11-14T01:15:18;8.60;99.90
17170;DHT22;8700;48.222;16.342;2022-11-14T01:18:40;8.60;99.90
17170;DHT22;8700;48.222;16.342;2022-11-14T01:22:02;8.60;99.90
17170;DHT22;8700;48.222;16.342;2022-11-14T01:25:23;8.40;99.90
17170;DHT22;8700;48.222;16.342;2022-11-14T01:28:45;8.40;99.90
17170;DHT22;8700;48.222;16.342;2022-11-14T01:32:06;8.50;99.90
17170;DHT22;8700;48.222;16.342;2022-11-14T01:35:30;8.50;99.90
17170;DHT22;8700;48.222;16.342;2022-11-14T01:38:52;8.60;99.90
17170;DHT22;8700;48.222;16.342;2022-11-14T01:42:14;8.80;99.90
17170;DHT22;8700;48.222;16.342;2022-11-14T01:45:51;8.70;99.90
17170;DHT22;8700;48.222;16.342;2022-11-14T01:49:16;8.70;99.90
17170;DHT22;8700;48.222;16.342;2022-11-14T01:52:40;8.90;99.90
17170;DHT22;8700;48.222;16.342;2022-11-14T01:56:03;9.00;99.90
17170;DHT22;8700;48.222;16.342;2022-11-14T01:59:29;9.00;99.90
17170;DHT22;8700;48.222;16.342;2022-11-14T02:02:53;9.00;99.90
17170;DHT22;8700;48.222;16.342;2022-11-14T02:06:17;8.80;99.90
17170;DHT22;8700;48.222;16.342;2022-11-14T02:09:44;8.90;99.90
17170;DHT22;8700;48.222;16.342;2022-11-14T02:13:06;8.80;99.90
17170;DHT22;8700;48.222;16.342;2022-11-14T02:16:27;8.90;99.90
17170;DHT22;8700;48.222;16.342;2022-11-14T02:19:51;8.80;99.90
17170;DHT22;8700;48.222;16.342;2022-11-14T02:23:23;8.80;99.90
17170;DHT22;8700;48.222;16.342;2022-11-14T02:26:45;8.80;99.90
17170;DHT22;8700;48.222;16.342;2022-11-14T02:30:09;8.80;99.90
17170;DHT22;8700;48.222;16.342;2022-11-14T02:33:31;8.70;99.90
17170;DHT22;8700;48.222;16.342;2022-11-14T02:36:52;8.80;99.90
17170;DHT22;8700;48.222;16.342;2022-11-14T02:40:15;8.80;99.90
17170;DHT22;8700;48.222;16.342;2022-11-14T02:43:37;8.80;99.90
17170;DHT22;8700;48.222;16.342;2022-11-14T02:46:58;8.90;99.90
17170;DHT22;8700;48.222;16.342;2022-11-14T02:50:19;9.00;99.90
17170;DHT22;8700;48.222;16.342;2022-11-14T02:53:41;9.20;99.90
17170;DHT22;8700;48.222;16.342;2022-11-14T02:57:04;9.20;99.90
17170;DHT22;8700;48.222;16.342;2022-11-14T03:00:25;9.00;99.90
17170;DHT22;8700;48.222;16.342;2022-11-14T03:03:46;8.90;99.90
17170;DHT22;8700;48.222;16.342;2022-11-14T03:07:08;9.00;99.90
17170;DHT22;8700;48.222;16.342;2022-11-14T03:10:29;9.20;99.90
17170;DHT22;8700;48.222;16.342;2022-11-14T03:13:52;9.00;99.90
17170;DHT22;8700;48.222;16.342;2022-11-14T03:17:13;8.90;99.90
17170;DHT22;8700;48.222;16.342;2022-11-14T03:20:34;8.70;99.90
17170;DHT22;8700;48.222;16.342;2022-11-14T03:23:56;8.60;99.90
17170;DHT22;8700;48.222;16.342;2022-11-14T03:27:17;8.70;99.90
17170;DHT22;8700;48.222;16.342;2022-11-14T03:30:41;8.70;99.90
17170;DHT22;8700;48.222;16.342;2022-11-14T03:34:02;8.50;99.90
17170;DHT22;8700;48.222;16.342;2022-11-14T03:37:24;8.60;99.90
17170;DHT22;8700;48.222;16.342;2022-11-14T03:40:45;8.70;99.90
17170;DHT22;8700;48.222;16.342;2022-11-14T03:44:08;8.60;99.90
17170;DHT22;8700;48.222;16.342;2022-11-14T03:47:31;8.70;99.90
17170;DHT22;8700;48.222;16.342;2022-11-14T03:50:53;8.80;99.90
17170;DHT22;8700;48.222;16.342;2022-11-14T03:54:15;8.80;99.90
17170;DHT22;8700;48.222;16.342;2022-11-14T03:57:36;8.90;99.90
17170;DHT22;8700;48.222;16.342;2022-11-14T04:00:57;8.80;99.90
17170;DHT22;8700;48.222;16.342;2022-11-14T04:04:20;8.60;99.90
17170;DHT22;8700;48.222;16.342;2022-11-14T04:07:41;8.70;99.90
17170;DHT22;8700;48.222;16.342;2022-11-14T04:11:03;8.50;99.90
17170;DHT22;8700;48.222;16.342;2022-11-14T04:14:24;8.50;99.90
17170;DHT22;8700;48.222;16.342;2022-11-14T04:17:46;8.50;99.90
17170;DHT22;8700;48.222;16.342;2022-11-14T04:21:11;8.70;99.90
17170;DHT22;8700;48.222;16.342;2022-11-14T04:24:33;8.80;99.90
17170;DHT22;8700;48.222;16.342;2022-11-14T04:27:54;8.80;99.90
17170;DHT22;8700;48.222;16.342;2022-11-14T04:31:15;8.80;99.90
17170;DHT22;8700;48.222;16.342;2022-11-14T04:34:36;8.70;99.90
17170;DHT22;8700;48.222;16.342;2022-11-14T04:37:59;8.60;99.90
17170;DHT22;8700;48.222;16.342;2022-11-14T04:41:21;8.30;99.90
17170;DHT22;8700;48.222;16.342;2022-11-14T04:44:42;8.30;99.90
17170;DHT22;8700;48.222;16.342;2022-11-14T04:48:04;8.50;99.90
17170;DHT22;8700;48.222;16.342;2022-11-14T04:51:25;8.70;99.90
17170;DHT22;8700;48.222;16.342;2022-11-14T04:54:48;8.60;99.90
17170;DHT22;8700;48.222;16.342;2022-11-14T04:58:11;8.30;99.90
17170;DHT22;8700;48.222;16.342;2022-11-14T05:01:32;8.30;99.90
17170;DHT22;8700;48.222;16.342;2022-11-14T05:04:53;8.20;99.90
17170;DHT22;8700;48.222;16.342;2022-11-14T05:08:14;8.40;99.90
17170;DHT22;8700;48.222;16.342;2022-11-14T05:11:37;8.10;99.90
17170;DHT22;8700;48.222;16.342;2022-11-14T05:14:59;8.30;99.90
17170;DHT22;8700;48.222;16.342;2022-11-14T05:18:21;8.20;99.90
17170;DHT22;8700;48.222;16.342;2022-11-14T05:21:42;8.20;99.90
17170;DHT22;8700;48.222;16.342;2022-11-14T05:25:04;8.30;99.90
17170;DHT22;8700;48.222;16.342;2022-11-14T05:28:27;8.00;99.90
17170;DHT22;8700;48.222;16.342;2022-11-14T05:31:48;8.00;99.90
17170;DHT22;8700;48.222;16.342;2022-11-14T05:35:10;8.10;99.90
17170;DHT22;8700;48.222;16.342;2022-11-14T05:38:32;8.10;99.90
17170;DHT22;8700;48.222;16.342;2022-11-14T05:41:54;8.20;99.90
17170;DHT22;8700;48.222;16.342;2022-11-14T05:45:16;8.00;99.90
17170;DHT22;8700;48.222;16.342;2022-11-14T05:48:38;8.00;99.90
17170;DHT22;8700;48.222;16.342;2022-11-14T05:52:00;8.10;99.90
17170;DHT22;8700;48.222;16.342;2022-11-14T05:55:22;8.10;99.90
17170;DHT22;8700;48.222;16.342;2022-11-14T05:58:44;7.90;99.90
17170;DHT22;8700;48.222;16.342;2022-11-14T06:02:07;8.10;99.90
17170;DHT22;8700;48.222;16.342;2022-11-14T06:05:28;8.50;99.90
17170;DHT22;8700;48.222;16.342;2022-11-14T06:08:50;8.70;99.90
17170;DHT22;8700;48.222;16.342;2022-11-14T06:12:15;8.60;99.90
17170;DHT22;8700;48.222;16.342;2022-11-14T06:15:37;8.40;99.90
17170;DHT22;8700;48.222;16.342;2022-11-14T06:19:00;8.40;99.90
17170;DHT22;8700;48.222;16.342;2022-11-14T06:22:21;8.40;99.90
17170;DHT22;8700;48.222;16.342;2022-11-14T06:25:43;8.40;99.90
17170;DHT22;8700;48.222;16.342;2022-11-14T06:29:04;8.40;99.90
17170;DHT22;8700;48.222;16.342;2022-11-14T06:32:29;8.20;99.90
17170;DHT22;8700;48.222;16.342;2022-11-14T06:35:56;8.00;99.90
17170;DHT22;8700;48.222;16.342;2022-11-14T06:39:17;8.10;99.90
17170;DHT22;8700;48.222;16.342;2022-11-14T06:42:39;8.10;99.90
17170;DHT22;8700;48.222;16.342;2022-11-14T06:46:01;8.10;99.90
17170;DHT22;8700;48.222;16.342;2022-11-14T06:49:23;8.30;99.90
17170;DHT22;8700;48.222;16.342;2022-11-14T06:52:46;8.40;99.90
17170;DHT22;8700;48.222;16.342;2022-11-14T06:56:09;8.40;99.90
17170;DHT22;8700;48.222;16.342;2022-11-14T06:59:30;8.40;99.90
17170;DHT22;8700;48.222;16.342;2022-11-14T07:02:52;8.50;99.90
17170;DHT22;8700;48.222;16.342;2022-11-14T07:06:15;8.40;99.90
17170;DHT22;8700;48.222;16.342;2022-11-14T07:09:38;8.50;99.90
17170;DHT22;8700;48.222;16.342;2022-11-14T07:13:00;8.30;99.90
17170;DHT22;8700;48.222;16.342;2022-11-14T07:16:24;8.20;99.90
17170;DHT22;8700;48.222;16.342;2022-11-14T07:19:45;8.40;99.90
17170;DHT22;8700;48.222;16.342;2022-11-14T07:23:07;8.50;99.90
17170;DHT22;8700;48.222;16.342;2022-11-14T07:26:30;8.60;99.90
17170;DHT22;8700;48.222;16.342;2022-11-14T07:29:51;8.50;99.90
17170;DHT22;8700;48.222;16.342;2022-11-14T07:33:13;8.60;99.90
17170;DHT22;8700;48.222;16.342;2022-11-14T07:36:34;8.60;99.90
17170;DHT22;8700;48.222;16.342;2022-11-14T07:39:56;8.80;99.90
17170;DHT22;8700;48.222;16.342;2022-11-14T07:43:19;8.90;99.90
17170;DHT22;8700;48.222;16.342;2022-11-14T07:46:40;8.80;99.90
17170;DHT22;8700;48.222;16.342;2022-11-14T07:50:02;8.70;99.90
17170;DHT22;8700;48.222;16.342;2022-11-14T07:53:24;8.70;99.90
17170;DHT22;8700;48.222;16.342;2022-11-14T07:56:45;8.90;99.90
17170;DHT22;8700;48.222;16.342;2022-11-14T08:00:10;8.80;99.90
17170;DHT22;8700;48.222;16.342;2022-11-14T08:03:31;8.70;99.90
17170;DHT22;8700;48.222;16.342;2022-11-14T08:06:53;8.80;99.90
17170;DHT22;8700;48.222;16.342;2022-11-14T08:10:14;8.80;99.90
17170;DHT22;8700;48.222;16.342;2022-11-14T08:13:37;8.80;99.90
17170;DHT22;8700;48.222;16.342;2022-11-14T08:17:00;8.60;99.90
17170;DHT22;8700;48.222;16.342;2022-11-14T08:20:21;8.80;99.90
17170;DHT22;8700;48.222;16.342;2022-11-14T08:23:43;8.90;99.90
17170;DHT22;8700;48.222;16.342;2022-11-14T08:27:05;8.80;99.90
17170;DHT22;8700;48.222;16.342;2022-11-14T08:30:26;8.80;99.90
17170;DHT22;8700;48.222;16.342;2022-11-14T08:33:50;9.00;99.90
17170;DHT22;8700;48.222;16.342;2022-11-14T08:37:12;8.70;99.90
17170;DHT22;8700;48.222;16.342;2022-11-14T08:40:34;9.00;99.90
17170;DHT22;8700;48.222;16.342;2022-11-14T08:43:55;9.10;99.90
17170;DHT22;8700;48.222;16.342;2022-11-14T08:47:17;9.20;99.90
17170;DHT22;8700;48.222;16.342;2022-11-14T08:50:40;9.30;99.90
17170;DHT22;8700;48.222;16.342;2022-11-14T08:54:01;9.50;99.90
17170;DHT22;8700;48.222;16.342;2022-11-14T08:57:23;9.40;99.90
17170;DHT22;8700;48.222;16.342;2022-11-14T09:00:44;9.30;99.90
17170;DHT22;8700;48.222;16.342;2022-11-14T09:04:06;9.40;99.90
17170;DHT22;8700;48.222;16.342;2022-11-14T09:07:30;9.40;99.90
17170;DHT22;8700;48.222;16.342;2022-11-14T09:10:51;9.30;99.90
17170;DHT22;8700;48.222;16.342;2022-11-14T09:14:13;9.60;99.90
17170;DHT22;8700;48.222;16.342;2022-11-14T09:17:34;10.10;99.90
17170;DHT22;8700;48.222;16.342;2022-11-14T09:20:59;10.20;99.90
17170;DHT22;8700;48.222;16.342;2022-11-14T09:24:22;10.10;99.90
17170;DHT22;8700;48.222;16.342;2022-11-14T09:27:44;10.10;99.90
17170;DHT22;8700;48.222;16.342;2022-11-14T09:31:17;10.20;99.90
17170;DHT22;8700;48.222;16.342;2022-11-14T09:34:38;10.30;99.90
17170;DHT22;8700;48.222;16.342;2022-11-14T09:38:04;10.60;99.90
17170;DHT22;8700;48.222;16.342;2022-11-14T09:41:38;10.90;99.90
17170;DHT22;8700;48.222;16.342;2022-11-14T09:45:02;11.00;99.90
17170;DHT22;8700;48.222;16.342;2022-11-14T09:48:27;10.90;99.90
17170;DHT22;8700;48.222;16.342;2022-11-14T09:51:53;11.00;99.90
17170;DHT22;8700;48.222;16.342;2022-11-14T09:55:20;11.30;99.90
17170;DHT22;8700;48.222;16.342;2022-11-14T09:58:43;11.50;99.90
17170;DHT22;8700;48.222;16.342;2022-11-14T10:02:17;11.80;99.90
17170;DHT22;8700;48.222;16.342;2022-11-14T10:06:00;11.80;99.90
17170;DHT22;8700;48.222;16.342;2022-11-14T10:09:43;11.80;99.90
17170;DHT22;8700;48.222;16.342;2022-11-14T10:13:16;12.10;99.90
17170;DHT22;8700;48.222;16.342;2022-11-14T10:16:51;12.10;99.90
17170;DHT22;8700;48.222;16.342;2022-11-14T10:20:20;12.20;99.90
17170;DHT22;8700;48.222;16.342;2022-11-14T10:23:50;12.80;99.90
17170;DHT22;8700;48.222;16.342;2022-11-14T10:27:19;13.50;99.90
17170;DHT22;8700;48.222;16.342;2022-11-14T10:30:50;13.90;99.90
17170;DHT22;8700;48.222;16.342;2022-11-14T10:34:24;14.50;99.90
17170;DHT22;8700;48.222;16.342;2022-11-14T10:37:54;15.10;99.90
17170;DHT22;8700;48.222;16.342;2022-11-14T10:41:19;15.60;99.90
17170;DHT22;8700;48.222;16.342;2022-11-14T10:44:45;16.50;99.90
17170;DHT22;8700;48.222;16.342;2022-11-14T10:48:13;17.40;99.90
17170;DHT22;8700;48.222;16.342;2022-11-14T10:51:39;17.00;99.90
17170;DHT22;8700;48.222;16.342;2022-11-14T10:55:06;16.50;99.90
17170;DHT22;8700;48.222;16.342;2022-11-14T10:58:33;17.00;99.90
17170;DHT22;8700;48.222;16.342;2022-11-14T11:01:56;16.10;99.90
17170;DHT22;8700;48.222;16.342;2022-11-14T11:05:20;15.40;99.90
17170;DHT22;8700;48.222;16.342;2022-11-14T11:08:45;15.30;99.90
17170;DHT22;8700;48.222;16.342;2022-11-14T11:12:37;15.70;99.90
17170;DHT22;8700;48.222;16.342;2022-11-14T11:16:03;16.10;99.90
17170;DHT22;8700;48.222;16.342;2022-11-14T11:19:26;14.80;99.90
17170;DHT22;8700;48.222;16.342;2022-11-14T11:23:00;15.30;99.90
17170;DHT22;8700;48.222;16.342;2022-11-14T11:26:25;15.70;99.90
17170;DHT22;8700;48.222;16.342;2022-11-14T11:30:00;15.50;99.90
17170;DHT22;8700;48.222;16.342;2022-11-14T11:33:24;15.60;99.90
17170;DHT22;8700;48.222;16.342;2022-11-14T11:36:50;15.60;99.90
17170;DHT22;8700;48.222;16.342;2022-11-14T11:40:17;15.60;99.90
17170;DHT22;8700;48.222;16.342;2022-11-14T11:43:44;16.10;99.90
17170;DHT22;8700;48.222;16.342;2022-11-14T11:47:10;16.60;99.90
17170;DHT22;8700;48.222;16.342;2022-11-14T11:50:33;17.30;99.90
17170;DHT22;8700;48.222;16.342;2022-11-14T11:53:59;17.10;99.90
17170;DHT22;8700;48.222;16.342;2022-11-14T11:57:27;16.20;99.90
17170;DHT22;8700;48.222;16.342;2022-11-14T12:00:53;16.50;99.90
17170;DHT22;8700;48.222;16.342;2022-11-14T12:04:15;16.20;99.90
17170;DHT22;8700;48.222;16.342;2022-11-14T12:07:43;15.80;99.90
17170;DHT22;8700;48.222;16.342;2022-11-14T12:11:09;15.00;99.90
17170;DHT22;8700;48.222;16.342;2022-11-14T12:14:45;13.90;99.90
17170;DHT22;8700;48.222;16.342;2022-11-14T12:18:35;13.10;99.90
17170;DHT22;8700;48.222;16.342;2022-11-14T12:22:21;12.80;99.90
17170;DHT22;8700;48.222;16.342;2022-11-14T12:26:04;12.60;99.90
17170;DHT22;8700;48.222;16.342;2022-11-14T12:30:00;12.50;99.90
17170;DHT22;8700;48.222;16.342;2022-11-14T12:33:25;12.50;99.90
17170;DHT22;8700;48.222;16.342;2022-11-14T12:36:50;12.60;99.90
17170;DHT22;8700;48.222;16.342;2022-11-14T12:40:22;12.70;99.90
17170;DHT22;8700;48.222;16.342;2022-11-14T12:43:45;12.60;99.90
17170;DHT22;8700;48.222;16.342;2022-11-14T12:47:18;12.70;99.90
17170;DHT22;8700;48.222;16.342;2022-11-14T12:50:40;13.30;99.90
17170;DHT22;8700;48.222;16.342;2022-11-14T12:54:04;13.50;99.90
17170;DHT22;8700;48.222;16.342;2022-11-14T12:57:51;13.30;99.90
17170;DHT22;8700;48.222;16.342;2022-11-14T13:01:30;13.30;99.90
17170;DHT22;8700;48.222;16.342;2022-11-14T13:05:22;13.00;99.90
17170;DHT22;8700;48.222;16.342;2022-11-14T13:09:02;12.40;99.90
17170;DHT22;8700;48.222;16.342;2022-11-14T13:12:31;12.10;99.90
17170;DHT22;8700;48.222;16.342;2022-11-14T13:16:29;12.00;99.90
17170;DHT22;8700;48.222;16.342;2022-11-14T13:20:26;12.10;99.90
17170;DHT22;8700;48.222;16.342;2022-11-14T13:24:08;12.20;99.90
17170;DHT22;8700;48.222;16.342;2022-11-14T13:27:32;12.40;99.90
17170;DHT22;8700;48.222;16.342;2022-11-14T13:31:18;12.30;99.90
17170;DHT22;8700;48.222;16.342;2022-11-14T13:34:43;12.30;99.90
17170;DHT22;8700;48.222;16.342;2022-11-14T13:38:24;12.30;99.90
17170;DHT22;8700;48.222;16.342;2022-11-14T13:42:08;12.00;99.90
17170;DHT22;8700;48.222;16.342;2022-11-14T13:45:56;11.90;99.90
17170;DHT22;8700;48.222;16.342;2022-11-14T13:49:31;11.90;99.90
17170;DHT22;8700;48.222;16.342;2022-11-14T13:52:58;11.80;99.90
17170;DHT22;8700;48.222;16.342;2022-11-14T13:56:29;11.70;99.90
17170;DHT22;8700;48.222;16.342;2022-11-14T14:00:06;11.60;99.90
17170;DHT22;8700;48.222;16.342;2022-11-14T14:03:39;11.50;99.90
17170;DHT22;8700;48.222;16.342;2022-11-14T14:07:09;11.50;99.90
17170;DHT22;8700;48.222;16.342;2022-11-14T14:10:40;11.50;99.90
17170;DHT22;8700;48.222;16.342;2022-11-14T14:14:13;11.50;99.90
17170;DHT22;8700;48.222;16.342;2022-11-14T14:17:43;11.30;99.90
17170;DHT22;8700;48.222;16.342;2022-11-14T14:21:17;11.10;99.90
17170;DHT22;8700;48.222;16.342;2022-11-14T14:24:52;11.00;99.90
17170;DHT22;8700;48.222;16.342;2022-11-14T14:28:20;10.80;99.90
17170;DHT22;8700;48.222;16.342;2022-11-14T14:31:44;10.50;99.90
17170;DHT22;8700;48.222;16.342;2022-11-14T14:35:23;10.20;99.90
17170;DHT22;8700;48.222;16.342;2022-11-14T14:38:46;10.20;99.90
17170;DHT22;8700;48.222;16.342;2022-11-14T14:42:10;10.30;99.90
17170;DHT22;8700;48.222;16.342;2022-11-14T14:45:43;10.20;99.90
17170;DHT22;8700;48.222;16.342;2022-11-14T14:49:05;10.30;99.90
17170;DHT22;8700;48.222;16.342;2022-11-14T14:52:28;10.30;99.90
17170;DHT22;8700;48.222;16.342;2022-11-14T14:55:57;10.60;99.90
17170;DHT22;8700;48.222;16.342;2022-11-14T14:59:21;10.60;99.90
17170;DHT22;8700;48.222;16.342;2022-11-14T15:02:44;10.60;99.90
17170;DHT22;8700;48.222;16.342;2022-11-14T15:06:20;10.50;99.90
17170;DHT22;8700;48.222;16.342;2022-11-14T15:09:53;10.20;99.90
17170;DHT22;8700;48.222;16.342;2022-11-14T15:13:17;10.20;99.90
17170;DHT22;8700;48.222;16.342;2022-11-14T15:16:39;9.90;99.90
17170;DHT22;8700;48.222;16.342;2022-11-14T15:20:01;10.00;99.90
17170;DHT22;8700;48.222;16.342;2022-11-14T15:23:23;9.90;99.90
17170;DHT22;8700;48.222;16.342;2022-11-14T15:26:45;9.80;99.90
17170;DHT22;8700;48.222;16.342;2022-11-14T15:30:22;9.80;99.90
17170;DHT22;8700;48.222;16.342;2022-11-14T15:33:45;9.80;99.90
17170;DHT22;8700;48.222;16.342;2022-11-14T15:37:22;10.10;99.90
17170;DHT22;8700;48.222;16.342;2022-11-14T15:41:19;10.10;99.90
17170;DHT22;8700;48.222;16.342;2022-11-14T15:44:41;9.80;99.90
17170;DHT22;8700;48.222;16.342;2022-11-14T15:48:11;9.70;99.90
17170;DHT22;8700;48.222;16.342;2022-11-14T15:51:41;9.90;99.90
17170;DHT22;8700;48.222;16.342;2022-11-14T15:55:12;10.00;99.90
17170;DHT22;8700;48.222;16.342;2022-11-14T15:58:33;10.10;99.90
17170;DHT22;8700;48.222;16.342;2022-11-14T16:01:58;9.90;99.90
17170;DHT22;8700;48.222;16.342;2022-11-14T16:05:29;9.70;99.90
17170;DHT22;8700;48.222;16.342;2022-11-14T16:08:51;9.80;99.90
17170;DHT22;8700;48.222;16.342;2022-11-14T16:12:13;9.80;99.90
17170;DHT22;8700;48.222;16.342;2022-11-14T16:15:35;9.90;99.90
17170;DHT22;8700;48.222;16.342;2022-11-14T16:18:56;10.00;99.90
17170;DHT22;8700;48.222;16.342;2022-11-14T16:22:22;10.20;99.90
17170;DHT22;8700;48.222;16.342;2022-11-14T16:25:43;10.40;99.90
17170;DHT22;8700;48.222;16.342;2022-11-14T16:29:05;10.50;99.90
17170;DHT22;8700;48.222;16.342;2022-11-14T16:32:26;10.30;99.90
17170;DHT22;8700;48.222;16.342;2022-11-14T16:35:48;10.30;99.90
17170;DHT22;8700;48.222;16.342;2022-11-14T16:39:11;10.10;99.90
17170;DHT22;8700;48.222;16.342;2022-11-14T16:42:33;10.00;99.90
17170;DHT22;8700;48.222;16.342;2022-11-14T16:45:54;9.80;99.90
17170;DHT22;8700;48.222;16.342;2022-11-14T16:49:16;9.70;99.90
17170;DHT22;8700;48.222;16.342;2022-11-14T16:52:38;9.70;99.90
17170;DHT22;8700;48.222;16.342;2022-11-14T16:56:01;9.90;99.90
17170;DHT22;8700;48.222;16.342;2022-11-14T16:59:22;9.80;99.90
17170;DHT22;8700;48.222;16.342;2022-11-14T17:02:44;9.90;99.90
17170;DHT22;8700;48.222;16.342;2022-11-14T17:06:09;9.90;99.90
17170;DHT22;8700;48.222;16.342;2022-11-14T17:09:30;9.70;99.90
17170;DHT22;8700;48.222;16.342;2022-11-14T17:12:53;9.60;99.90
17170;DHT22;8700;48.222;16.342;2022-11-14T17:16:15;9.70;99.90
17170;DHT22;8700;48.222;16.342;2022-11-14T17:19:36;9.70;99.90
17170;DHT22;8700;48.222;16.342;2022-11-14T17:23:04;9.70;99.90
17170;DHT22;8700;48.222;16.342;2022-11-14T17:26:26;9.80;99.90
17170;DHT22;8700;48.222;16.342;2022-11-14T17:29:50;9.70;99.90
17170;DHT22;8700;48.222;16.342;2022-11-14T17:33:11;9.60;99.90
17170;DHT22;8700;48.222;16.342;2022-11-14T17:36:35;9.60;99.90
17170;DHT22;8700;48.222;16.342;2022-11-14T17:39:57;9.60;99.90
17170;DHT22;8700;48.222;16.342;2022-11-14T17:43:22;9.60;99.90
17170;DHT22;8700;48.222;16.342;2022-11-14T17:46:45;9.50;99.90
17170;DHT22;8700;48.222;16.342;2022-11-14T17:50:07;9.50;99.90
17170;DHT22;8700;48.222;16.342;2022-11-14T17:53:30;9.60;99.90
17170;DHT22;8700;48.222;16.342;2022-11-14T17:56:52;9.70;99.90
17170;DHT22;8700;48.222;16.342;2022-11-14T18:00:14;9.70;99.90
17170;DHT22;8700;48.222;16.342;2022-11-14T18:03:37;9.90;99.90
17170;DHT22;8700;48.222;16.342;2022-11-14T18:06:58;9.70;99.90
17170;DHT22;8700;48.222;16.342;2022-11-14T18:10:20;9.60;99.90
17170;DHT22;8700;48.222;16.342;2022-11-14T18:13:42;9.60;99.90
17170;DHT22;8700;48.222;16.342;2022-11-14T18:17:04;9.60;99.90
17170;DHT22;8700;48.222;16.342;2022-11-14T18:20:26;9.60;99.90
17170;DHT22;8700;48.222;16.342;2022-11-14T18:23:50;9.60;99.90
17170;DHT22;8700;48.222;16.342;2022-11-14T18:27:11;9.50;99.90
17170;DHT22;8700;48.222;16.342;2022-11-14T18:30:33;9.50;99.90
17170;DHT22;8700;48.222;16.342;2022-11-14T18:33:54;9.50;99.90
17170;DHT22;8700;48.222;16.342;2022-11-14T18:37:18;9.50;99.90
17170;DHT22;8700;48.222;16.342;2022-11-14T18:40:42;9.40;99.90
17170;DHT22;8700;48.222;16.342;2022-11-14T18:44:04;9.50;99.90
17170;DHT22;8700;48.222;16.342;2022-11-14T18:47:27;9.60;99.90
17170;DHT22;8700;48.222;16.342;2022-11-14T18:50:48;9.50;99.90
17170;DHT22;8700;48.222;16.342;2022-11-14T18:54:12;9.60;99.90
17170;DHT22;8700;48.222;16.342;2022-11-14T18:57:34;9.70;99.90
17170;DHT22;8700;48.222;16.342;2022-11-14T19:00:56;9.70;99.90
17170;DHT22;8700;48.222;16.342;2022-11-14T19:04:17;9.70;99.90
17170;DHT22;8700;48.222;16.342;2022-11-14T19:07:39;9.60;99.90
17170;DHT22;8700;48.222;16.342;2022-11-14T19:11:03;9.60;99.90
17170;DHT22;8700;48.222;16.342;2022-11-14T19:14:25;9.60;99.90
17170;DHT22;8700;48.222;16.342;2022-11-14T19:17:46;9.60;99.90
17170;DHT22;8700;48.222;16.342;2022-11-14T19:21:08;9.60;99.90
17170;DHT22;8700;48.222;16.342;2022-11-14T19:24:30;9.70;99.90
17170;DHT22;8700;48.222;16.342;2022-11-14T19:27:54;9.70;99.90
17170;DHT22;8700;48.222;16.342;2022-11-14T19:31:18;9.70;99.90
17170;DHT22;8700;48.222;16.342;2022-11-14T19:34:40;9.70;99.90
17170;DHT22;8700;48.222;16.342;2022-11-14T19:38:01;9.70;99.90
17170;DHT22;8700;48.222;16.342;2022-11-14T19:41:25;9.60;99.90
17170;DHT22;8700;48.222;16.342;2022-11-14T19:44:48;9.60;99.90
17170;DHT22;8700;48.222;16.342;2022-11-14T19:48:09;9.60;99.90
17170;DHT22;8700;48.222;16.342;2022-11-14T19:51:31;9.60;99.90
17170;DHT22;8700;48.222;16.342;2022-11-14T19:54:52;9.50;99.90
17170;DHT22;8700;48.222;16.342;2022-11-14T19:58:13;9.40;99.90
17170;DHT22;8700;48.222;16.342;2022-11-14T20:01:36;9.30;99.90
17170;DHT22;8700;48.222;16.342;2022-11-14T20:04:57;9.20;99.90
17170;DHT22;8700;48.222;16.342;2022-11-14T20:08:19;9.10;99.90
17170;DHT22;8700;48.222;16.342;2022-11-14T20:11:40;8.80;99.90
17170;DHT22;8700;48.222;16.342;2022-11-14T20:15:01;8.80;99.90
17170;DHT22;8700;48.222;16.342;2022-11-14T20:18:24;8.80;99.90
17170;DHT22;8700;48.222;16.342;2022-11-14T20:21:48;8.70;99.90
17170;DHT22;8700;48.222;16.342;2022-11-14T20:25:09;8.70;99.90
17170;DHT22;8700;48.222;16.342;2022-11-14T20:28:34;8.60;99.90
17170;DHT22;8700;48.222;16.342;2022-11-14T20:31:56;8.70;99.90
17170;DHT22;8700;48.222;16.342;2022-11-14T20:35:18;8.50;99.90
17170;DHT22;8700;48.222;16.342;2022-11-14T20:38:40;8.70;99.90
17170;DHT22;8700;48.222;16.342;2022-11-14T20:42:01;8.60;99.90
17170;DHT22;8700;48.222;16.342;2022-11-14T20:45:23;8.60;99.90
17170;DHT22;8700;48.222;16.342;2022-11-14T20:48:44;8.60;99.90
17170;DHT22;8700;48.222;16.342;2022-11-14T20:52:07;8.70;99.90
17170;DHT22;8700;48.222;16.342;2022-11-14T20:55:28;8.50;99.90
17170;DHT22;8700;48.222;16.342;2022-11-14T20:58:50;8.50;99.90
17170;DHT22;8700;48.222;16.342;2022-11-14T21:02:12;8.40;99.90
17170;DHT22;8700;48.222;16.342;2022-11-14T21:05:37;8.40;99.90
17170;DHT22;8700;48.222;16.342;2022-11-14T21:08:59;8.50;99.90
17170;DHT22;8700;48.222;16.342;2022-11-14T21:12:20;8.50;99.90
17170;DHT22;8700;48.222;16.342;2022-11-14T21:15:42;8.50;99.90
17170;DHT22;8700;48.222;16.342;2022-11-14T21:19:05;8.50;99.90
17170;DHT22;8700;48.222;16.342;2022-11-14T21:22:26;8.50;99.90
17170;DHT22;8700;48.222;16.342;2022-11-14T21:25:49;8.40;99.90
17170;DHT22;8700;48.222;16.342;2022-11-14T21:29:11;8.40;99.90
17170;DHT22;8700;48.222;16.342;2022-11-14T21:32:33;8.60;99.90
17170;DHT22;8700;48.222;16.342;2022-11-14T21:35:55;8.60;99.90
17170;DHT22;8700;48.222;16.342;2022-11-14T21:39:19;8.30;99.90
17170;DHT22;8700;48.222;16.342;2022-11-14T21:42:41;8.20;99.90
17170;DHT22;8700;48.222;16.342;2022-11-14T21:46:05;8.30;99.90
17170;DHT22;8700;48.222;16.342;2022-11-14T21:49:26;8.30;99.90